sensor_id;sensor_type;location;lat;lon;timestamp;P1;durP1;ratioP1;P2;durP2;ratioP2
18100;SDS011;9177;49.156;8.142;2022-12-29T00:00:21;3.33;;;1.70;;
18100;SDS011;9177;49.156;8.142;2022-12-29T00:02:50;3.07;;;1.60;;
18100;SDS011;9177;49.156;8.142;2022-12-29T00:05:17;2.07;;;1.57;;
18100;SDS011;9177;49.156;8.142;2022-12-29T00:07:44;2.40;;;1.20;;
18100;SDS011;9177;49.156;8.142;2022-12-29T00:10:10;1.87;;;1.60;;
18100;SDS011;9177;49.156;8.142;2022-12-29T00:12:37;2.37;;;1.50;;
18100;SDS011;9177;49.156;8.142;2022-12-29T00:15:22;1.70;;;1.57;;
18100;SDS011;9177;49.156;8.142;2022-12-29T00:18:06;2.30;;;1.50;;
18100;SDS011;9177;49.156;8.142;2022-12-29T00:20:34;1.80;;;1.10;;
18100;SDS011;9177;49.156;8.142;2022-12-29T00:23:18;1.87;;;1.43;;
18100;SDS011;9177;49.156;8.142;2022-12-29T00:26:03;2.97;;;1.43;;
18100;SDS011;9177;49.156;8.142;2022-12-29T00:28:52;3.30;;;1.37;;
18100;SDS011;9177;49.156;8.142;2022-12-29T00:31:36;1.50;;;1.30;;
18100;SDS011;9177;49.156;8.142;2022-12-29T00:34:22;2.57;;;1.70;;
18100;SDS011;9177;49.156;8.142;2022-12-29T00:37:06;2.00;;;1.47;;
18100;SDS011;9177;49.156;8.142;2022-12-29T00:39:33;1.40;;;1.30;;
18100;SDS011;9177;49.156;8.142;2022-12-29T00:42:18;1.80;;;1.47;;
18100;SDS011;9177;49.156;8.142;2022-12-29T00:45:02;1.70;;;1.40;;
18100;SDS011;9177;49.156;8.142;2022-12-29T00:47:29;1.90;;;1.40;;
18100;SDS011;9177;49.156;8.142;2022-12-29T00:49:57;3.00;;;1.50;;
18100;SDS011;9177;49.156;8.142;2022-12-29T00:52:23;1.20;;;1.10;;
18100;SDS011;9177;49.156;8.142;2022-12-29T00:54:50;1.83;;;1.30;;
18100;SDS011;9177;49.156;8.142;2022-12-29T00:57:17;2.50;;;1.60;;
18100;SDS011;9177;49.156;8.142;2022-12-29T00:59:44;2.10;;;1.53;;
18100;SDS011;9177;49.156;8.142;2022-12-29T01:02:11;2.83;;;1.40;;
18100;SDS011;9177;49.156;8.142;2022-12-29T01:04:38;2.00;;;1.33;;
18100;SDS011;9177;49.156;8.142;2022-12-29T01:07:06;2.03;;;1.50;;
18100;SDS011;9177;49.156;8.142;2022-12-29T01:09:33;1.90;;;1.50;;
18100;SDS011;9177;49.156;8.142;2022-12-29T01:12:16;1.60;;;1.50;;
18100;SDS011;9177;49.156;8.142;2022-12-29T01:15:05;1.57;;;1.47;;
18100;SDS011;9177;49.156;8.142;2022-12-29T01:17:32;2.17;;;1.53;;
18100;SDS011;9177;49.156;8.142;2022-12-29T01:20:00;1.70;;;1.20;;
18100;SDS011;9177;49.156;8.142;2022-12-29T01:22:28;1.87;;;1.50;;
18100;SDS011;9177;49.156;8.142;2022-12-29T01:24:55;1.70;;;1.50;;
18100;SDS011;9177;49.156;8.142;2022-12-29T01:27:22;2.03;;;1.30;;
18100;SDS011;9177;49.156;8.142;2022-12-29T01:29:49;2.37;;;1.40;;
18100;SDS011;9177;49.156;8.142;2022-12-29T01:32:18;1.63;;;1.40;;
18100;SDS011;9177;49.156;8.142;2022-12-29T01:34:53;2.20;;;1.53;;
18100;SDS011;9177;49.156;8.142;2022-12-29T01:37:20;3.33;;;1.50;;
18100;SDS011;9177;49.156;8.142;2022-12-29T01:39:48;1.57;;;1.40;;
18100;SDS011;9177;49.156;8.142;2022-12-29T01:42:16;1.97;;;1.50;;
18100;SDS011;9177;49.156;8.142;2022-12-29T01:44:49;1.67;;;1.43;;
18100;SDS011;9177;49.156;8.142;2022-12-29T01:47:20;1.73;;;1.23;;
18100;SDS011;9177;49.156;8.142;2022-12-29T01:49:54;1.60;;;1.33;;
18100;SDS011;9177;49.156;8.142;2022-12-29T01:52:24;1.20;;;1.10;;
18100;SDS011;9177;49.156;8.142;2022-12-29T01:54:56;1.23;;;1.00;;
18100;SDS011;9177;49.156;8.142;2022-12-29T01:57:25;3.80;;;1.20;;
18100;SDS011;9177;49.156;8.142;2022-12-29T01:59:56;2.20;;;1.20;;
18100;SDS011;9177;49.156;8.142;2022-12-29T02:02:28;1.47;;;1.20;;
18100;SDS011;9177;49.156;8.142;2022-12-29T02:04:56;1.20;;;1.10;;
18100;SDS011;9177;49.156;8.142;2022-12-29T02:07:26;1.67;;;1.00;;
18100;SDS011;9177;49.156;8.142;2022-12-29T02:09:53;1.37;;;1.23;;
18100;SDS011;9177;49.156;8.142;2022-12-29T02:12:23;3.07;;;1.03;;
18100;SDS011;9177;49.156;8.142;2022-12-29T02:14:50;1.00;;;0.90;;
18100;SDS011;9177;49.156;8.142;2022-12-29T02:17:25;1.57;;;1.30;;
18100;SDS011;9177;49.156;8.142;2022-12-29T02:20:09;1.23;;;1.00;;
18100;SDS011;9177;49.156;8.142;2022-12-29T02:23:08;2.30;;;1.23;;
18100;SDS011;9177;49.156;8.142;2022-12-29T02:29:11;1.17;;;1.00;;
18100;SDS011;9177;49.156;8.142;2022-12-29T02:31:52;1.73;;;1.37;;
18100;SDS011;9177;49.156;8.142;2022-12-29T02:34:26;1.00;;;0.90;;
18100;SDS011;9177;49.156;8.142;2022-12-29T02:37:02;1.23;;;0.97;;
18100;SDS011;9177;49.156;8.142;2022-12-29T02:39:35;1.60;;;1.10;;
18100;SDS011;9177;49.156;8.142;2022-12-29T02:42:08;1.67;;;1.10;;
18100;SDS011;9177;49.156;8.142;2022-12-29T02:44:43;1.40;;;1.00;;
18100;SDS011;9177;49.156;8.142;2022-12-29T02:47:22;0.80;;;0.80;;
18100;SDS011;9177;49.156;8.142;2022-12-29T02:49:56;2.43;;;1.10;;
18100;SDS011;9177;49.156;8.142;2022-12-29T02:52:27;2.63;;;1.30;;
18100;SDS011;9177;49.156;8.142;2022-12-29T02:54:58;1.47;;;0.90;;
18100;SDS011;9177;49.156;8.142;2022-12-29T02:57:31;1.67;;;0.90;;
18100;SDS011;9177;49.156;8.142;2022-12-29T03:00:01;1.33;;;1.10;;
18100;SDS011;9177;49.156;8.142;2022-12-29T03:05:41;2.13;;;1.10;;
18100;SDS011;9177;49.156;8.142;2022-12-29T03:08:31;1.23;;;1.13;;
18100;SDS011;9177;49.156;8.142;2022-12-29T03:11:04;1.20;;;0.90;;
18100;SDS011;9177;49.156;8.142;2022-12-29T03:13:52;1.27;;;1.10;;
18100;SDS011;9177;49.156;8.142;2022-12-29T03:16:44;0.90;;;0.77;;
18100;SDS011;9177;49.156;8.142;2022-12-29T03:19:15;1.70;;;1.10;;
18100;SDS011;9177;49.156;8.142;2022-12-29T03:21:49;2.53;;;1.20;;
18100;SDS011;9177;49.156;8.142;2022-12-29T03:24:41;1.63;;;0.90;;
18100;SDS011;9177;49.156;8.142;2022-12-29T03:27:18;1.10;;;1.00;;
18100;SDS011;9177;49.156;8.142;2022-12-29T03:29:50;1.20;;;1.10;;
18100;SDS011;9177;49.156;8.142;2022-12-29T03:32:20;1.10;;;0.87;;
18100;SDS011;9177;49.156;8.142;2022-12-29T03:34:49;1.43;;;1.20;;
18100;SDS011;9177;49.156;8.142;2022-12-29T03:37:18;0.90;;;0.70;;
18100;SDS011;9177;49.156;8.142;2022-12-29T03:39:48;1.00;;;0.90;;
18100;SDS011;9177;49.156;8.142;2022-12-29T03:42:21;0.80;;;0.80;;
18100;SDS011;9177;49.156;8.142;2022-12-29T03:44:53;1.43;;;1.00;;
18100;SDS011;9177;49.156;8.142;2022-12-29T03:47:21;1.17;;;0.80;;
18100;SDS011;9177;49.156;8.142;2022-12-29T03:49:49;1.53;;;0.73;;
18100;SDS011;9177;49.156;8.142;2022-12-29T03:52:17;0.93;;;0.80;;
18100;SDS011;9177;49.156;8.142;2022-12-29T03:54:45;1.00;;;0.90;;
18100;SDS011;9177;49.156;8.142;2022-12-29T03:57:12;1.90;;;0.70;;
18100;SDS011;9177;49.156;8.142;2022-12-29T03:59:38;0.97;;;0.90;;
18100;SDS011;9177;49.156;8.142;2022-12-29T04:02:05;1.07;;;0.90;;
18100;SDS011;9177;49.156;8.142;2022-12-29T04:04:32;1.00;;;0.80;;
18100;SDS011;9177;49.156;8.142;2022-12-29T04:06:59;1.20;;;0.80;;
18100;SDS011;9177;49.156;8.142;2022-12-29T04:09:27;1.50;;;0.83;;
18100;SDS011;9177;49.156;8.142;2022-12-29T04:11:54;1.07;;;0.80;;
18100;SDS011;9177;49.156;8.142;2022-12-29T04:14:21;1.53;;;0.90;;
18100;SDS011;9177;49.156;8.142;2022-12-29T04:16:48;1.10;;;1.00;;
18100;SDS011;9177;49.156;8.142;2022-12-29T04:19:44;1.03;;;0.80;;
18100;SDS011;9177;49.156;8.142;2022-12-29T04:22:11;1.07;;;0.70;;
18100;SDS011;9177;49.156;8.142;2022-12-29T04:24:39;0.90;;;0.80;;
18100;SDS011;9177;49.156;8.142;2022-12-29T04:27:06;1.00;;;0.80;;
18100;SDS011;9177;49.156;8.142;2022-12-29T04:29:33;0.80;;;0.60;;
18100;SDS011;9177;49.156;8.142;2022-12-29T04:31:59;1.37;;;0.90;;
18100;SDS011;9177;49.156;8.142;2022-12-29T04:34:26;1.10;;;0.90;;
18100;SDS011;9177;49.156;8.142;2022-12-29T04:36:53;0.90;;;0.77;;
18100;SDS011;9177;49.156;8.142;2022-12-29T04:39:20;1.73;;;0.80;;
18100;SDS011;9177;49.156;8.142;2022-12-29T04:41:49;0.70;;;0.70;;
18100;SDS011;9177;49.156;8.142;2022-12-29T04:44:15;1.13;;;0.70;;
18100;SDS011;9177;49.156;8.142;2022-12-29T04:46:42;0.93;;;0.70;;
18100;SDS011;9177;49.156;8.142;2022-12-29T04:49:09;1.37;;;0.77;;
18100;SDS011;9177;49.156;8.142;2022-12-29T04:51:36;1.20;;;0.80;;
18100;SDS011;9177;49.156;8.142;2022-12-29T04:54:03;1.13;;;0.70;;
18100;SDS011;9177;49.156;8.142;2022-12-29T04:56:30;1.17;;;0.60;;
18100;SDS011;9177;49.156;8.142;2022-12-29T04:58:58;0.90;;;0.80;;
18100;SDS011;9177;49.156;8.142;2022-12-29T05:01:25;1.10;;;0.80;;
18100;SDS011;9177;49.156;8.142;2022-12-29T05:03:52;0.70;;;0.70;;
18100;SDS011;9177;49.156;8.142;2022-12-29T05:06:19;0.80;;;0.60;;
18100;SDS011;9177;49.156;8.142;2022-12-29T05:08:46;1.00;;;0.73;;
18100;SDS011;9177;49.156;8.142;2022-12-29T05:11:12;0.63;;;0.63;;
18100;SDS011;9177;49.156;8.142;2022-12-29T05:13:39;0.70;;;0.70;;
18100;SDS011;9177;49.156;8.142;2022-12-29T05:16:07;1.43;;;0.70;;
18100;SDS011;9177;49.156;8.142;2022-12-29T05:18:34;1.20;;;0.77;;
18100;SDS011;9177;49.156;8.142;2022-12-29T05:21:01;1.03;;;0.80;;
18100;SDS011;9177;49.156;8.142;2022-12-29T05:23:31;1.00;;;0.80;;
18100;SDS011;9177;49.156;8.142;2022-12-29T05:25:58;0.80;;;0.70;;
18100;SDS011;9177;49.156;8.142;2022-12-29T05:28:24;1.23;;;0.60;;
18100;SDS011;9177;49.156;8.142;2022-12-29T05:30:51;0.73;;;0.67;;
18100;SDS011;9177;49.156;8.142;2022-12-29T05:33:19;0.77;;;0.60;;
18100;SDS011;9177;49.156;8.142;2022-12-29T05:35:46;1.07;;;0.73;;
18100;SDS011;9177;49.156;8.142;2022-12-29T05:38:13;1.50;;;0.83;;
18100;SDS011;9177;49.156;8.142;2022-12-29T05:40:40;1.37;;;0.70;;
18100;SDS011;9177;49.156;8.142;2022-12-29T05:43:07;0.87;;;0.80;;
18100;SDS011;9177;49.156;8.142;2022-12-29T05:45:35;1.37;;;0.80;;
18100;SDS011;9177;49.156;8.142;2022-12-29T05:48:02;0.67;;;0.67;;
18100;SDS011;9177;49.156;8.142;2022-12-29T05:50:31;1.73;;;0.70;;
18100;SDS011;9177;49.156;8.142;2022-12-29T05:52:58;0.70;;;0.60;;
18100;SDS011;9177;49.156;8.142;2022-12-29T05:55:25;0.63;;;0.63;;
18100;SDS011;9177;49.156;8.142;2022-12-29T05:57:53;1.30;;;0.93;;
18100;SDS011;9177;49.156;8.142;2022-12-29T06:00:22;1.53;;;0.77;;
18100;SDS011;9177;49.156;8.142;2022-12-29T06:02:49;1.03;;;0.60;;
18100;SDS011;9177;49.156;8.142;2022-12-29T06:05:16;1.27;;;0.80;;
18100;SDS011;9177;49.156;8.142;2022-12-29T06:07:44;0.73;;;0.67;;
18100;SDS011;9177;49.156;8.142;2022-12-29T06:10:11;2.13;;;0.80;;
18100;SDS011;9177;49.156;8.142;2022-12-29T06:12:38;1.60;;;0.80;;
18100;SDS011;9177;49.156;8.142;2022-12-29T06:15:06;0.73;;;0.60;;
18100;SDS011;9177;49.156;8.142;2022-12-29T06:17:33;0.77;;;0.70;;
18100;SDS011;9177;49.156;8.142;2022-12-29T06:20:00;0.63;;;0.60;;
18100;SDS011;9177;49.156;8.142;2022-12-29T06:22:27;0.73;;;0.73;;
18100;SDS011;9177;49.156;8.142;2022-12-29T06:25:06;0.80;;;0.70;;
18100;SDS011;9177;49.156;8.142;2022-12-29T06:27:33;1.00;;;0.60;;
18100;SDS011;9177;49.156;8.142;2022-12-29T06:30:00;0.73;;;0.60;;
18100;SDS011;9177;49.156;8.142;2022-12-29T06:32:27;0.67;;;0.67;;
18100;SDS011;9177;49.156;8.142;2022-12-29T06:34:53;0.77;;;0.77;;
18100;SDS011;9177;49.156;8.142;2022-12-29T06:37:20;1.17;;;0.67;;
18100;SDS011;9177;49.156;8.142;2022-12-29T06:39:47;2.63;;;0.80;;
18100;SDS011;9177;49.156;8.142;2022-12-29T06:42:15;1.63;;;0.57;;
18100;SDS011;9177;49.156;8.142;2022-12-29T06:44:42;1.00;;;0.80;;
18100;SDS011;9177;49.156;8.142;2022-12-29T06:47:09;1.07;;;0.80;;
18100;SDS011;9177;49.156;8.142;2022-12-29T06:49:36;2.37;;;0.80;;
18100;SDS011;9177;49.156;8.142;2022-12-29T06:52:03;0.70;;;0.67;;
18100;SDS011;9177;49.156;8.142;2022-12-29T06:54:30;1.17;;;0.70;;
18100;SDS011;9177;49.156;8.142;2022-12-29T06:56:57;1.10;;;0.90;;
18100;SDS011;9177;49.156;8.142;2022-12-29T06:59:26;1.03;;;0.70;;
18100;SDS011;9177;49.156;8.142;2022-12-29T07:01:53;0.77;;;0.70;;
18100;SDS011;9177;49.156;8.142;2022-12-29T07:04:20;1.00;;;0.60;;
18100;SDS011;9177;49.156;8.142;2022-12-29T07:06:47;0.83;;;0.73;;
18100;SDS011;9177;49.156;8.142;2022-12-29T07:09:14;1.10;;;1.00;;
18100;SDS011;9177;49.156;8.142;2022-12-29T07:11:41;1.13;;;0.77;;
18100;SDS011;9177;49.156;8.142;2022-12-29T07:14:08;0.70;;;0.70;;
18100;SDS011;9177;49.156;8.142;2022-12-29T07:16:37;1.00;;;0.70;;
18100;SDS011;9177;49.156;8.142;2022-12-29T07:19:04;1.73;;;0.80;;
18100;SDS011;9177;49.156;8.142;2022-12-29T07:21:31;0.90;;;0.70;;
18100;SDS011;9177;49.156;8.142;2022-12-29T07:23:58;1.60;;;0.80;;
18100;SDS011;9177;49.156;8.142;2022-12-29T07:26:25;0.67;;;0.67;;
18100;SDS011;9177;49.156;8.142;2022-12-29T07:28:52;1.63;;;0.87;;
18100;SDS011;9177;49.156;8.142;2022-12-29T07:31:21;0.87;;;0.67;;
18100;SDS011;9177;49.156;8.142;2022-12-29T07:33:51;1.00;;;0.90;;
18100;SDS011;9177;49.156;8.142;2022-12-29T07:36:19;1.60;;;0.73;;
18100;SDS011;9177;49.156;8.142;2022-12-29T07:38:46;1.10;;;0.70;;
18100;SDS011;9177;49.156;8.142;2022-12-29T07:41:12;0.90;;;0.80;;
18100;SDS011;9177;49.156;8.142;2022-12-29T07:43:39;1.53;;;0.77;;
18100;SDS011;9177;49.156;8.142;2022-12-29T07:46:07;1.00;;;0.90;;
18100;SDS011;9177;49.156;8.142;2022-12-29T07:48:34;1.13;;;0.90;;
18100;SDS011;9177;49.156;8.142;2022-12-29T07:51:02;1.00;;;0.70;;
18100;SDS011;9177;49.156;8.142;2022-12-29T07:53:29;1.20;;;0.80;;
18100;SDS011;9177;49.156;8.142;2022-12-29T07:55:56;1.90;;;0.80;;
18100;SDS011;9177;49.156;8.142;2022-12-29T07:58:23;1.50;;;1.07;;
18100;SDS011;9177;49.156;8.142;2022-12-29T08:00:52;2.07;;;0.70;;
18100;SDS011;9177;49.156;8.142;2022-12-29T08:03:19;1.13;;;0.80;;
18100;SDS011;9177;49.156;8.142;2022-12-29T08:05:52;1.03;;;0.80;;
18100;SDS011;9177;49.156;8.142;2022-12-29T08:08:22;1.27;;;0.77;;
18100;SDS011;9177;49.156;8.142;2022-12-29T08:10:49;1.27;;;0.80;;
18100;SDS011;9177;49.156;8.142;2022-12-29T08:13:15;1.97;;;0.90;;
18100;SDS011;9177;49.156;8.142;2022-12-29T08:15:42;1.33;;;0.73;;
18100;SDS011;9177;49.156;8.142;2022-12-29T08:18:09;0.83;;;0.83;;
18100;SDS011;9177;49.156;8.142;2022-12-29T08:20:36;0.80;;;0.80;;
18100;SDS011;9177;49.156;8.142;2022-12-29T08:23:03;1.00;;;0.80;;
18100;SDS011;9177;49.156;8.142;2022-12-29T08:25:31;1.13;;;0.80;;
18100;SDS011;9177;49.156;8.142;2022-12-29T08:27:58;1.10;;;0.90;;
18100;SDS011;9177;49.156;8.142;2022-12-29T08:30:24;1.50;;;1.10;;
18100;SDS011;9177;49.156;8.142;2022-12-29T08:32:51;0.80;;;0.80;;
18100;SDS011;9177;49.156;8.142;2022-12-29T08:35:18;1.63;;;0.80;;
18100;SDS011;9177;49.156;8.142;2022-12-29T08:37:46;1.80;;;0.73;;
18100;SDS011;9177;49.156;8.142;2022-12-29T08:40:14;2.03;;;1.00;;
18100;SDS011;9177;49.156;8.142;2022-12-29T08:42:42;0.80;;;0.80;;
18100;SDS011;9177;49.156;8.142;2022-12-29T08:45:09;1.20;;;0.97;;
18100;SDS011;9177;49.156;8.142;2022-12-29T08:47:37;0.87;;;0.70;;
18100;SDS011;9177;49.156;8.142;2022-12-29T08:50:04;1.53;;;1.00;;
18100;SDS011;9177;49.156;8.142;2022-12-29T08:52:31;1.70;;;0.90;;
18100;SDS011;9177;49.156;8.142;2022-12-29T08:54:58;2.27;;;1.13;;
18100;SDS011;9177;49.156;8.142;2022-12-29T08:57:25;1.53;;;0.80;;
18100;SDS011;9177;49.156;8.142;2022-12-29T08:59:53;0.70;;;0.57;;
18100;SDS011;9177;49.156;8.142;2022-12-29T09:02:20;2.00;;;1.00;;
18100;SDS011;9177;49.156;8.142;2022-12-29T09:04:47;2.90;;;0.60;;
18100;SDS011;9177;49.156;8.142;2022-12-29T09:07:14;1.53;;;1.17;;
18100;SDS011;9177;49.156;8.142;2022-12-29T09:09:40;1.10;;;0.90;;
18100;SDS011;9177;49.156;8.142;2022-12-29T09:12:07;1.10;;;0.90;;
18100;SDS011;9177;49.156;8.142;2022-12-29T09:14:34;0.80;;;0.70;;
18100;SDS011;9177;49.156;8.142;2022-12-29T09:17:02;1.20;;;1.00;;
18100;SDS011;9177;49.156;8.142;2022-12-29T09:19:46;1.20;;;0.90;;
18100;SDS011;9177;49.156;8.142;2022-12-29T09:22:13;1.30;;;1.10;;
18100;SDS011;9177;49.156;8.142;2022-12-29T09:24:46;1.90;;;1.00;;
18100;SDS011;9177;49.156;8.142;2022-12-29T09:27:21;1.10;;;0.90;;
18100;SDS011;9177;49.156;8.142;2022-12-29T09:29:47;1.40;;;0.90;;
18100;SDS011;9177;49.156;8.142;2022-12-29T09:32:16;1.03;;;0.90;;
18100;SDS011;9177;49.156;8.142;2022-12-29T09:34:43;2.30;;;0.97;;
18100;SDS011;9177;49.156;8.142;2022-12-29T09:37:09;1.00;;;0.87;;
18100;SDS011;9177;49.156;8.142;2022-12-29T09:39:36;2.33;;;0.90;;
18100;SDS011;9177;49.156;8.142;2022-12-29T09:42:07;2.60;;;0.80;;
18100;SDS011;9177;49.156;8.142;2022-12-29T09:44:45;2.33;;;1.00;;
18100;SDS011;9177;49.156;8.142;2022-12-29T09:47:22;1.03;;;0.70;;
18100;SDS011;9177;49.156;8.142;2022-12-29T09:49:52;2.43;;;0.97;;
18100;SDS011;9177;49.156;8.142;2022-12-29T09:52:22;2.00;;;0.80;;
18100;SDS011;9177;49.156;8.142;2022-12-29T09:54:55;2.80;;;0.90;;
18100;SDS011;9177;49.156;8.142;2022-12-29T09:57:25;1.90;;;1.03;;
18100;SDS011;9177;49.156;8.142;2022-12-29T09:59:55;1.53;;;1.00;;
18100;SDS011;9177;49.156;8.142;2022-12-29T10:02:32;2.43;;;1.20;;
18100;SDS011;9177;49.156;8.142;2022-12-29T10:05:03;2.70;;;1.10;;
18100;SDS011;9177;49.156;8.142;2022-12-29T10:07:40;3.27;;;1.00;;
18100;SDS011;9177;49.156;8.142;2022-12-29T10:10:15;2.63;;;1.33;;
18100;SDS011;9177;49.156;8.142;2022-12-29T10:12:54;2.17;;;0.90;;
18100;SDS011;9177;49.156;8.142;2022-12-29T10:15:30;3.83;;;1.00;;
18100;SDS011;9177;49.156;8.142;2022-12-29T10:18:12;4.53;;;1.30;;
18100;SDS011;9177;49.156;8.142;2022-12-29T10:20:58;5.50;;;1.20;;
18100;SDS011;9177;49.156;8.142;2022-12-29T10:23:35;4.63;;;1.27;;
18100;SDS011;9177;49.156;8.142;2022-12-29T10:26:07;7.57;;;1.50;;
18100;SDS011;9177;49.156;8.142;2022-12-29T10:28:40;5.07;;;1.30;;
18100;SDS011;9177;49.156;8.142;2022-12-29T10:31:14;4.13;;;1.30;;
18100;SDS011;9177;49.156;8.142;2022-12-29T10:33:51;2.50;;;1.20;;
18100;SDS011;9177;49.156;8.142;2022-12-29T10:36:24;3.60;;;1.00;;
18100;SDS011;9177;49.156;8.142;2022-12-29T10:38:58;5.50;;;1.30;;
18100;SDS011;9177;49.156;8.142;2022-12-29T10:41:34;2.80;;;0.93;;
18100;SDS011;9177;49.156;8.142;2022-12-29T10:44:07;5.40;;;1.37;;
18100;SDS011;9177;49.156;8.142;2022-12-29T10:46:39;3.53;;;1.10;;
18100;SDS011;9177;49.156;8.142;2022-12-29T10:49:14;4.60;;;1.17;;
18100;SDS011;9177;49.156;8.142;2022-12-29T10:51:44;8.13;;;1.27;;
18100;SDS011;9177;49.156;8.142;2022-12-29T10:54:14;2.70;;;1.10;;
18100;SDS011;9177;49.156;8.142;2022-12-29T10:56:47;3.47;;;1.00;;
18100;SDS011;9177;49.156;8.142;2022-12-29T10:59:19;6.40;;;1.23;;
18100;SDS011;9177;49.156;8.142;2022-12-29T11:01:50;2.10;;;1.10;;
18100;SDS011;9177;49.156;8.142;2022-12-29T11:04:32;2.90;;;0.97;;
18100;SDS011;9177;49.156;8.142;2022-12-29T11:07:09;1.97;;;1.10;;
18100;SDS011;9177;49.156;8.142;2022-12-29T11:09:37;4.03;;;1.20;;
18100;SDS011;9177;49.156;8.142;2022-12-29T11:12:17;3.03;;;1.03;;
18100;SDS011;9177;49.156;8.142;2022-12-29T11:15:00;3.73;;;1.07;;
18100;SDS011;9177;49.156;8.142;2022-12-29T11:17:48;2.37;;;0.93;;
18100;SDS011;9177;49.156;8.142;2022-12-29T11:20:27;3.07;;;1.10;;
18100;SDS011;9177;49.156;8.142;2022-12-29T11:22:56;2.83;;;0.80;;
18100;SDS011;9177;49.156;8.142;2022-12-29T11:25:24;5.97;;;2.17;;
18100;SDS011;9177;49.156;8.142;2022-12-29T11:27:55;11.40;;;4.30;;
18100;SDS011;9177;49.156;8.142;2022-12-29T11:30:25;23.10;;;9.07;;
18100;SDS011;9177;49.156;8.142;2022-12-29T11:32:54;33.73;;;16.80;;
18100;SDS011;9177;49.156;8.142;2022-12-29T11:35:34;49.07;;;26.20;;
18100;SDS011;9177;49.156;8.142;2022-12-29T11:38:03;55.83;;;35.50;;
18100;SDS011;9177;49.156;8.142;2022-12-29T11:40:30;63.38;;;39.78;;
18100;SDS011;9177;49.156;8.142;2022-12-29T11:43:04;67.40;;;39.93;;
18100;SDS011;9177;49.156;8.142;2022-12-29T11:45:33;68.83;;;42.53;;
18100;SDS011;9177;49.156;8.142;2022-12-29T11:48:05;101.90;;;71.50;;
18100;SDS011;9177;49.156;8.142;2022-12-29T11:50:40;96.17;;;65.27;;
18100;SDS011;9177;49.156;8.142;2022-12-29T11:53:15;75.33;;;53.63;;
18100;SDS011;9177;49.156;8.142;2022-12-29T11:55:50;55.07;;;40.07;;
18100;SDS011;9177;49.156;8.142;2022-12-29T11:58:19;52.33;;;36.67;;
18100;SDS011;9177;49.156;8.142;2022-12-29T12:00:54;44.93;;;29.50;;
18100;SDS011;9177;49.156;8.142;2022-12-29T12:03:22;32.77;;;21.20;;
18100;SDS011;9177;49.156;8.142;2022-12-29T12:05:54;29.20;;;18.37;;
18100;SDS011;9177;49.156;8.142;2022-12-29T12:08:28;26.37;;;16.87;;
18100;SDS011;9177;49.156;8.142;2022-12-29T12:11:03;20.27;;;13.40;;
18100;SDS011;9177;49.156;8.142;2022-12-29T12:13:33;14.57;;;10.50;;
18100;SDS011;9177;49.156;8.142;2022-12-29T12:16:06;15.03;;;9.90;;
18100;SDS011;9177;49.156;8.142;2022-12-29T12:18:38;14.23;;;9.93;;
18100;SDS011;9177;49.156;8.142;2022-12-29T12:21:14;11.43;;;7.77;;
18100;SDS011;9177;49.156;8.142;2022-12-29T12:23:53;17.90;;;11.13;;
18100;SDS011;9177;49.156;8.142;2022-12-29T12:26:32;9.87;;;6.30;;
18100;SDS011;9177;49.156;8.142;2022-12-29T12:29:04;9.50;;;6.20;;
18100;SDS011;9177;49.156;8.142;2022-12-29T12:31:41;11.67;;;6.07;;
18100;SDS011;9177;49.156;8.142;2022-12-29T12:34:13;13.77;;;6.63;;
18100;SDS011;9177;49.156;8.142;2022-12-29T12:36:57;11.47;;;6.77;;
18100;SDS011;9177;49.156;8.142;2022-12-29T12:39:34;10.70;;;6.17;;
18100;SDS011;9177;49.156;8.142;2022-12-29T12:42:12;11.60;;;6.20;;
18100;SDS011;9177;49.156;8.142;2022-12-29T12:44:51;16.83;;;7.40;;
18100;SDS011;9177;49.156;8.142;2022-12-29T12:47:30;13.27;;;6.87;;
18100;SDS011;9177;49.156;8.142;2022-12-29T12:50:14;13.00;;;6.70;;
18100;SDS011;9177;49.156;8.142;2022-12-29T12:52:57;12.43;;;6.73;;
18100;SDS011;9177;49.156;8.142;2022-12-29T12:55:45;11.37;;;6.30;;
18100;SDS011;9177;49.156;8.142;2022-12-29T12:58:22;10.47;;;6.40;;
18100;SDS011;9177;49.156;8.142;2022-12-29T13:01:01;9.70;;;6.60;;
18100;SDS011;9177;49.156;8.142;2022-12-29T13:03:46;17.80;;;7.60;;
18100;SDS011;9177;49.156;8.142;2022-12-29T13:06:26;15.20;;;6.57;;
18100;SDS011;9177;49.156;8.142;2022-12-29T13:09:12;14.77;;;7.27;;
18100;SDS011;9177;49.156;8.142;2022-12-29T13:11:55;12.53;;;6.80;;
18100;SDS011;9177;49.156;8.142;2022-12-29T13:14:34;15.47;;;7.67;;
18100;SDS011;9177;49.156;8.142;2022-12-29T13:17:12;17.97;;;7.83;;
18100;SDS011;9177;49.156;8.142;2022-12-29T13:19:47;16.77;;;7.80;;
18100;SDS011;9177;49.156;8.142;2022-12-29T13:22:25;16.60;;;8.63;;
18100;SDS011;9177;49.156;8.142;2022-12-29T13:25:05;19.20;;;8.23;;
18100;SDS011;9177;49.156;8.142;2022-12-29T13:27:44;24.37;;;8.60;;
18100;SDS011;9177;49.156;8.142;2022-12-29T13:30:20;20.47;;;8.33;;
18100;SDS011;9177;49.156;8.142;2022-12-29T13:32:53;19.17;;;8.63;;
18100;SDS011;9177;49.156;8.142;2022-12-29T13:35:34;23.60;;;8.77;;
18100;SDS011;9177;49.156;8.142;2022-12-29T13:38:13;20.13;;;8.80;;
18100;SDS011;9177;49.156;8.142;2022-12-29T13:40:48;27.00;;;8.87;;
18100;SDS011;9177;49.156;8.142;2022-12-29T13:43:19;24.67;;;8.90;;
18100;SDS011;9177;49.156;8.142;2022-12-29T13:45:55;20.93;;;8.17;;
18100;SDS011;9177;49.156;8.142;2022-12-29T13:48:28;18.50;;;8.13;;
18100;SDS011;9177;49.156;8.142;2022-12-29T13:51:02;19.13;;;7.73;;
18100;SDS011;9177;49.156;8.142;2022-12-29T13:53:30;20.73;;;8.20;;
18100;SDS011;9177;49.156;8.142;2022-12-29T13:56:09;21.37;;;8.70;;
18100;SDS011;9177;49.156;8.142;2022-12-29T13:58:41;18.47;;;7.47;;
18100;SDS011;9177;49.156;8.142;2022-12-29T14:01:12;16.03;;;7.03;;
18100;SDS011;9177;49.156;8.142;2022-12-29T14:03:46;18.33;;;7.00;;
18100;SDS011;9177;49.156;8.142;2022-12-29T14:06:17;10.50;;;5.70;;
18100;SDS011;9177;49.156;8.142;2022-12-29T14:08:47;13.07;;;5.10;;
18100;SDS011;9177;49.156;8.142;2022-12-29T14:11:17;14.87;;;4.97;;
18100;SDS011;9177;49.156;8.142;2022-12-29T14:13:49;15.33;;;5.00;;
18100;SDS011;9177;49.156;8.142;2022-12-29T14:16:27;14.27;;;4.53;;
18100;SDS011;9177;49.156;8.142;2022-12-29T14:18:56;10.60;;;3.90;;
18100;SDS011;9177;49.156;8.142;2022-12-29T14:21:31;10.10;;;3.50;;
18100;SDS011;9177;49.156;8.142;2022-12-29T14:33:14;7.07;;;3.17;;
18100;SDS011;9177;49.156;8.142;2022-12-29T14:35:42;17.77;;;4.07;;
18100;SDS011;9177;49.156;8.142;2022-12-29T14:38:15;12.63;;;3.33;;
18100;SDS011;9177;49.156;8.142;2022-12-29T14:40:45;10.40;;;4.10;;
18100;SDS011;9177;49.156;8.142;2022-12-29T14:43:14;10.63;;;3.43;;
18100;SDS011;9177;49.156;8.142;2022-12-29T14:45:58;14.97;;;3.83;;
18100;SDS011;9177;49.156;8.142;2022-12-29T14:48:30;9.10;;;3.67;;
18100;SDS011;9177;49.156;8.142;2022-12-29T14:51:16;11.23;;;3.47;;
18100;SDS011;9177;49.156;8.142;2022-12-29T14:53:46;12.27;;;3.53;;
18100;SDS011;9177;49.156;8.142;2022-12-29T14:56:15;11.93;;;3.80;;
18100;SDS011;9177;49.156;8.142;2022-12-29T14:58:48;13.50;;;4.00;;
18100;SDS011;9177;49.156;8.142;2022-12-29T15:01:23;18.00;;;4.03;;
18100;SDS011;9177;49.156;8.142;2022-12-29T15:03:54;11.80;;;3.33;;
18100;SDS011;9177;49.156;8.142;2022-12-29T15:06:24;13.57;;;3.90;;
18100;SDS011;9177;49.156;8.142;2022-12-29T15:08:57;9.07;;;3.53;;
18100;SDS011;9177;49.156;8.142;2022-12-29T15:11:31;9.30;;;3.43;;
18100;SDS011;9177;49.156;8.142;2022-12-29T15:14:34;12.30;;;3.40;;
18100;SDS011;9177;49.156;8.142;2022-12-29T15:17:08;12.57;;;4.07;;
18100;SDS011;9177;49.156;8.142;2022-12-29T15:19:37;13.00;;;4.00;;
18100;SDS011;9177;49.156;8.142;2022-12-29T15:22:04;12.53;;;3.43;;
18100;SDS011;9177;49.156;8.142;2022-12-29T15:24:32;10.77;;;4.07;;
18100;SDS011;9177;49.156;8.142;2022-12-29T15:27:02;10.93;;;3.57;;
18100;SDS011;9177;49.156;8.142;2022-12-29T15:29:31;7.63;;;3.53;;
18100;SDS011;9177;49.156;8.142;2022-12-29T15:32:10;13.20;;;3.60;;
18100;SDS011;9177;49.156;8.142;2022-12-29T15:34:44;13.70;;;4.00;;
18100;SDS011;9177;49.156;8.142;2022-12-29T15:37:22;14.13;;;3.77;;
18100;SDS011;9177;49.156;8.142;2022-12-29T15:39:58;12.07;;;3.90;;